createdAt,value
2022-09-09T00:01:59.531Z,6.20
2022-09-09T00:04:36.698Z,6.00
2022-09-09T00:07:18.826Z,6.10
2022-09-09T00:10:01.721Z,6.40
2022-09-09T00:12:42.993Z,4.80
2022-09-09T00:15:21.660Z,6.20
2022-09-09T00:18:00.207Z,6.10
2022-09-09T00:20:38.333Z,7.40
2022-09-09T00:23:22.224Z,6.40
2022-09-09T00:26:02.268Z,7.70
2022-09-09T00:28:41.224Z,7.10
2022-09-09T00:31:17.699Z,6.60
2022-09-09T00:33:51.675Z,6.90
2022-09-09T00:36:27.441Z,6.10
2022-09-09T00:39:02.956Z,10.20
2022-09-09T00:41:44.814Z,5.70
2022-09-09T00:44:30.492Z,6.40
2022-09-09T00:47:15.043Z,7.00
2022-09-09T00:50:02.902Z,6.50
2022-09-09T00:52:49.073Z,7.80
2022-09-09T00:55:30.787Z,7.10
2022-09-09T00:58:03.465Z,6.30
2022-09-09T01:00:43.806Z,10.10
2022-09-09T01:03:25.119Z,6.80
2022-09-09T01:06:14.315Z,7.70
2022-09-09T01:09:07.238Z,7.70
2022-09-09T01:11:52.132Z,8.20
2022-09-09T01:14:36.201Z,8.10
2022-09-09T01:17:17.500Z,7.20
2022-09-09T01:20:08.528Z,8.00
2022-09-09T01:23:02.819Z,9.20
2022-09-09T01:26:22.291Z,10.60
2022-09-09T01:28:55.662Z,8.70
2022-09-09T01:31:38.774Z,7.90
2022-09-09T01:34:15.638Z,8.70
2022-09-09T01:36:55.212Z,8.20
2022-09-09T01:39:29.717Z,8.10
2022-09-09T01:42:11.831Z,6.80
2022-09-09T01:44:44.302Z,7.80
2022-09-09T01:47:16.875Z,8.90
2022-09-09T01:50:13.435Z,8.20
2022-09-09T01:52:48.426Z,11.40
2022-09-09T01:55:30.940Z,9.50
2022-09-09T01:58:16.773Z,7.70
2022-09-09T02:01:04.288Z,9.40
2022-09-09T02:03:37.483Z,6.40
2022-09-09T02:06:28.599Z,7.20
2022-09-09T02:09:08.557Z,8.00
2022-09-09T02:11:40.676Z,7.20
2022-09-09T02:14:26.404Z,10.90
2022-09-09T02:17:08.268Z,11.40
2022-09-09T02:20:12.929Z,9.80
2022-09-09T02:23:06.535Z,13.20
2022-09-09T02:25:42.680Z,11.30
2022-09-09T02:28:25.163Z,15.00
2022-09-09T02:30:59.692Z,20.00
2022-09-09T02:33:50.569Z,17.00
2022-09-09T02:36:25.759Z,18.90
2022-09-09T02:38:58.502Z,18.90
2022-09-09T02:41:37.032Z,15.20
2022-09-09T02:44:15.055Z,14.30
2022-09-09T02:47:14.033Z,19.30
2022-09-09T02:49:54.472Z,20.40
2022-09-09T02:52:35.632Z,17.00
2022-09-09T02:55:14.035Z,17.70
2022-09-09T02:57:49.409Z,17.00
2022-09-09T03:00:29.347Z,17.70
2022-09-09T03:03:04.939Z,19.00
2022-09-09T03:05:39.708Z,19.30
2022-09-09T03:08:15.350Z,17.00
2022-09-09T03:10:48.556Z,19.20
2022-09-09T03:13:20.741Z,18.20
2022-09-09T03:15:53.560Z,20.00
2022-09-09T03:18:26.600Z,20.90
2022-09-09T03:21:00.755Z,18.90
2022-09-09T03:23:32.896Z,19.10
2022-09-09T03:26:06.751Z,22.30
2022-09-09T03:28:46.598Z,18.90
2022-09-09T03:31:21.894Z,22.90
2022-09-09T03:33:54.073Z,23.20
2022-09-09T03:36:27.371Z,20.30
2022-09-09T03:39:00.260Z,21.60
2022-09-09T03:41:33.847Z,18.50
2022-09-09T03:44:06.583Z,21.60
2022-09-09T03:46:42.981Z,20.90
2022-09-09T03:49:16.339Z,26.90
2022-09-09T03:51:48.815Z,20.90
2022-09-09T03:54:21.767Z,22.30
2022-09-09T03:56:54.010Z,25.80
2022-09-09T03:59:26.512Z,20.10
2022-09-09T04:02:02.670Z,19.00
2022-09-09T04:04:35.089Z,20.10
2022-09-09T04:07:08.384Z,19.20
2022-09-09T04:09:40.770Z,22.20
2022-09-09T04:12:14.323Z,18.70
2022-09-09T04:14:48.915Z,18.10
2022-09-09T04:17:21.640Z,17.60
2022-09-09T04:19:57.169Z,17.70
2022-09-09T04:22:29.334Z,17.30
2022-09-09T04:25:01.973Z,20.70
2022-09-09T04:27:35.145Z,19.00
2022-09-09T04:30:08.905Z,16.60
2022-09-09T04:32:42.332Z,19.10
2022-09-09T04:35:15.401Z,15.20
2022-09-09T04:37:47.635Z,16.80
2022-09-09T04:40:19.961Z,16.30
2022-09-09T04:42:52.805Z,14.10
2022-09-09T04:45:25.163Z,15.50
2022-09-09T04:48:00.343Z,15.90
2022-09-09T04:50:32.865Z,15.10
2022-09-09T04:53:07.989Z,15.20
2022-09-09T04:55:40.971Z,16.20
2022-09-09T04:58:13.127Z,15.40
2022-09-09T05:00:45.414Z,15.90
2022-09-09T05:03:19.093Z,15.10
2022-09-09T05:05:52.797Z,15.50
2022-09-09T05:08:25.062Z,15.90
2022-09-09T05:11:00.378Z,15.60
2022-09-09T05:13:36.368Z,16.80
2022-09-09T05:16:12.405Z,15.90
2022-09-09T05:18:45.648Z,18.60
2022-09-09T05:21:21.317Z,15.20
2022-09-09T05:23:53.489Z,19.30
2022-09-09T05:26:26.315Z,19.50
2022-09-09T05:29:00.193Z,16.00
2022-09-09T05:31:34.069Z,17.80
2022-09-09T05:34:10.176Z,15.40
2022-09-09T05:36:42.361Z,17.40
2022-09-09T05:39:14.907Z,18.60
2022-09-09T05:41:47.050Z,17.50
2022-09-09T05:44:20.313Z,16.40
2022-09-09T05:46:52.705Z,17.00
2022-09-09T05:49:25.839Z,19.80
2022-09-09T05:52:01.306Z,17.00
2022-09-09T05:54:33.941Z,16.20
2022-09-09T05:57:07.023Z,16.10
2022-09-09T06:00:22.701Z,14.60
2022-09-09T06:02:56.042Z,14.60
2022-09-09T06:05:29.448Z,13.70
2022-09-09T06:08:02.733Z,13.70
2022-09-09T06:10:36.251Z,12.90
2022-09-09T06:13:10.995Z,13.70
2022-09-09T06:15:53.645Z,12.60
2022-09-09T06:18:25.953Z,11.20
2022-09-09T06:21:01.709Z,11.50
2022-09-09T06:23:36.114Z,11.10
2022-09-09T06:26:13.154Z,11.00
2022-09-09T06:28:46.615Z,10.80
2022-09-09T06:31:24.108Z,13.20
2022-09-09T06:34:00.730Z,12.80
2022-09-09T06:36:34.233Z,9.00
2022-09-09T06:39:10.970Z,9.30
2022-09-09T06:41:46.110Z,9.30
2022-09-09T06:44:44.305Z,9.50
2022-09-09T06:47:21.835Z,9.80
2022-09-09T06:49:54.559Z,8.70
2022-09-09T06:52:26.951Z,8.10
2022-09-09T06:55:02.744Z,8.40
2022-09-09T06:57:37.692Z,10.20
2022-09-09T07:00:22.950Z,9.50
2022-09-09T07:02:56.773Z,7.40
2022-09-09T07:05:28.943Z,7.80
2022-09-09T07:08:01.341Z,7.20
2022-09-09T07:10:35.325Z,18.20
2022-09-09T07:13:08.711Z,6.70
2022-09-09T07:15:40.987Z,6.90
2022-09-09T07:18:13.499Z,5.70
2022-09-09T07:20:54.459Z,4.90
2022-09-09T07:23:27.021Z,5.30
2022-09-09T07:26:01.114Z,4.80
2022-09-09T07:28:33.738Z,4.50
2022-09-09T07:31:07.618Z,5.10
2022-09-09T07:33:41.860Z,4.30
2022-09-09T07:36:18.581Z,4.10
2022-09-09T07:38:53.715Z,4.40
2022-09-09T07:41:27.473Z,7.30
2022-09-09T07:44:01.242Z,4.90
2022-09-09T07:46:33.593Z,4.80
2022-09-09T07:49:06.472Z,3.20
2022-09-09T07:51:42.910Z,3.50
2022-09-09T07:54:18.394Z,4.00
2022-09-09T07:56:50.681Z,4.20
2022-09-09T07:59:23.332Z,3.90
2022-09-09T08:01:57.794Z,3.60
2022-09-09T08:04:33.144Z,3.70
2022-09-09T08:07:07.325Z,4.00
2022-09-09T08:09:44.950Z,11.50
2022-09-09T08:12:26.484Z,6.10
2022-09-09T08:14:58.681Z,3.60
2022-09-09T08:17:33.980Z,3.80
2022-09-09T08:20:10.399Z,3.10
2022-09-09T08:22:43.101Z,3.10
2022-09-09T08:25:18.651Z,4.30
2022-09-09T08:27:51.233Z,3.90
2022-09-09T08:30:23.403Z,3.30
2022-09-09T08:32:58.417Z,3.10
2022-09-09T08:35:33.905Z,4.50
2022-09-09T08:38:10.763Z,2.90
2022-09-09T08:40:50.484Z,3.30
2022-09-09T08:43:25.880Z,2.00
2022-09-09T08:46:06.683Z,4.60
2022-09-09T08:48:53.261Z,2.90
2022-09-09T08:51:27.919Z,3.40
2022-09-09T08:54:01.739Z,3.10
2022-09-09T08:56:36.264Z,3.10
2022-09-09T08:59:12.905Z,4.30
2022-09-09T09:01:57.374Z,2.20
2022-09-09T09:05:03.821Z,2.50
2022-09-09T09:07:50.532Z,3.40
2022-09-09T09:10:42.990Z,3.40
2022-09-09T09:13:27.804Z,3.00
2022-09-09T09:16:10.382Z,3.70
2022-09-09T09:18:43.372Z,2.80
2022-09-09T09:21:19.817Z,2.60
2022-09-09T09:23:58.879Z,2.50
2022-09-09T09:26:36.619Z,2.60
2022-09-09T09:29:16.314Z,3.30
2022-09-09T09:31:53.469Z,2.80
2022-09-09T09:34:26.214Z,2.60
2022-09-09T09:37:02.802Z,2.40
2022-09-09T09:42:33.205Z,2.80
2022-09-09T09:46:06.953Z,3.60
2022-09-09T09:48:39.681Z,2.30
2022-09-09T09:51:20.404Z,3.80
2022-09-09T09:53:54.869Z,3.60
2022-09-09T09:56:36.071Z,3.70
2022-09-09T09:59:38.593Z,3.60
2022-09-09T10:02:26.043Z,2.80
2022-09-09T10:05:26.547Z,2.20
2022-09-09T10:08:12.404Z,3.50
2022-09-09T10:11:04.364Z,3.70
2022-09-09T10:13:46.576Z,3.50
2022-09-09T10:16:32.126Z,2.00
2022-09-09T10:19:07.776Z,2.30
2022-09-09T10:22:05.711Z,3.60
2022-09-09T10:24:52.476Z,6.50
2022-09-09T10:27:30.999Z,2.40
2022-09-09T10:30:13.552Z,2.10
2022-09-09T10:32:52.334Z,2.70
2022-09-09T10:35:32.898Z,2.70
2022-09-09T10:38:18.820Z,2.50
2022-09-09T10:41:12.333Z,2.60
2022-09-09T10:44:00.489Z,2.30
2022-09-09T10:46:47.941Z,2.40
2022-09-09T10:49:31.835Z,2.70
2022-09-09T10:52:09.999Z,3.10
2022-09-09T10:54:56.306Z,2.00
2022-09-09T10:57:37.667Z,2.80
2022-09-09T11:04:33.449Z,2.20
2022-09-09T11:07:12.103Z,3.50
2022-09-09T11:09:50.637Z,2.90
2022-09-09T11:12:23.253Z,1.90
2022-09-09T11:15:01.581Z,2.80
2022-09-09T11:17:43.135Z,2.10
2022-09-09T11:20:17.594Z,2.90
2022-09-09T11:22:58.145Z,3.10
2022-09-09T11:25:35.832Z,2.10
2022-09-09T11:28:32.351Z,1.90
2022-09-09T11:31:18.177Z,2.00
2022-09-09T11:34:09.536Z,1.70
2022-09-09T11:37:07.970Z,2.40
2022-09-09T11:39:55.882Z,2.00
2022-09-09T11:42:30.380Z,2.20
2022-09-09T11:45:14.101Z,2.20
2022-09-09T11:47:58.786Z,2.00
2022-09-09T11:50:41.239Z,2.10
2022-09-09T11:53:26.477Z,2.80
2022-09-09T11:56:08.436Z,3.30
2022-09-09T11:58:55.492Z,2.20
2022-09-09T12:01:43.802Z,4.80
2022-09-09T12:04:38.101Z,2.20
2022-09-09T12:07:34.209Z,2.40
2022-09-09T12:10:22.578Z,2.30
2022-09-09T12:12:54.866Z,4.30
2022-09-09T12:15:31.183Z,2.90
2022-09-09T12:18:03.786Z,4.40
2022-09-09T12:20:41.676Z,1.90
2022-09-09T12:23:30.314Z,1.60
2022-09-09T12:26:30.577Z,1.90
2022-09-09T12:29:14.704Z,3.30
2022-09-09T12:31:58.284Z,1.90
2022-09-09T12:34:40.282Z,1.60
2022-09-09T12:37:23.031Z,1.90
2022-09-09T12:39:58.453Z,1.80
2022-09-09T12:42:31.501Z,3.50
2022-09-09T12:45:07.500Z,3.00
2022-09-09T12:47:46.973Z,1.90
2022-09-09T12:50:29.861Z,2.20
2022-09-09T12:53:04.250Z,1.80
2022-09-09T12:55:40.318Z,3.20
2022-09-09T12:58:19.228Z,2.00
2022-09-09T13:00:57.529Z,1.70
2022-09-09T13:03:30.610Z,2.40
2022-09-09T13:06:15.350Z,2.00
2022-09-09T13:08:51.101Z,1.70
2022-09-09T13:11:27.035Z,2.20
2022-09-09T13:14:01.196Z,1.70
2022-09-09T13:16:41.858Z,2.20
2022-09-09T13:19:19.895Z,3.00
2022-09-09T13:21:52.014Z,2.10
2022-09-09T13:24:33.093Z,1.70
2022-09-09T13:27:06.995Z,2.80
2022-09-09T13:29:40.735Z,5.70
2022-09-09T13:32:20.950Z,3.20
2022-09-09T13:34:57.926Z,2.30
2022-09-09T13:37:37.158Z,2.20
2022-09-09T13:40:22.718Z,2.30
2022-09-09T13:42:59.200Z,2.10
2022-09-09T13:45:31.609Z,4.00
2022-09-09T13:48:14.664Z,3.10
2022-09-09T13:50:57.880Z,1.90
2022-09-09T13:53:33.950Z,2.30
2022-09-09T13:56:07.300Z,3.70
2022-09-09T13:58:39.497Z,4.10
2022-09-09T14:01:12.631Z,2.30
2022-09-09T14:03:45.337Z,2.70
2022-09-09T14:06:17.476Z,1.80
2022-09-09T14:08:53.100Z,2.10
2022-09-09T14:11:25.787Z,2.60
2022-09-09T14:13:58.086Z,3.80
2022-09-09T14:16:30.504Z,2.00
2022-09-09T14:19:02.897Z,2.10
2022-09-09T14:21:35.975Z,1.60
2022-09-09T14:24:08.658Z,1.70
2022-09-09T14:26:40.818Z,1.90
2022-09-09T14:29:13.152Z,2.10
2022-09-09T14:31:45.497Z,1.70
2022-09-09T14:34:17.668Z,2.10
2022-09-09T14:36:52.441Z,2.60
2022-09-09T14:39:24.540Z,1.90
2022-09-09T14:41:57.292Z,1.90
2022-09-09T14:44:29.468Z,2.30
2022-09-09T14:47:01.740Z,1.90
2022-09-09T14:49:33.893Z,2.60
2022-09-09T14:52:07.440Z,2.90
2022-09-09T14:54:39.576Z,1.90
2022-09-09T14:57:11.763Z,2.60
2022-09-09T14:59:43.957Z,2.20
2022-09-09T15:02:16.407Z,4.60
2022-09-09T15:04:50.884Z,3.60
2022-09-09T15:07:23.440Z,2.60
2022-09-09T15:09:58.385Z,1.90
2022-09-09T15:12:31.086Z,2.40
2022-09-09T15:15:03.191Z,2.40
2022-09-09T15:17:36.354Z,2.30
2022-09-09T15:20:10.328Z,2.80
2022-09-09T15:22:43.164Z,2.00
2022-09-09T15:25:16.103Z,2.10
2022-09-09T15:27:50.927Z,1.80
2022-09-09T15:30:23.947Z,2.60
2022-09-09T15:32:56.287Z,2.50
2022-09-09T15:35:28.394Z,2.60
2022-09-09T15:38:06.476Z,2.50
2022-09-09T15:40:38.646Z,2.50
2022-09-09T15:43:14.191Z,2.50
2022-09-09T15:45:48.189Z,2.10
2022-09-09T15:48:20.389Z,2.80
2022-09-09T15:51:24.682Z,1.80
2022-09-09T15:54:02.871Z,4.30
2022-09-09T15:56:35.877Z,3.10
2022-09-09T15:59:08.699Z,2.10
2022-09-09T16:01:45.181Z,2.80
2022-09-09T16:04:24.184Z,2.40
2022-09-09T16:06:59.475Z,2.00
2022-09-09T16:09:32.375Z,4.10
2022-09-09T16:12:08.919Z,2.40
2022-09-09T16:14:41.888Z,5.30
2022-09-09T16:17:15.273Z,2.50
2022-09-09T16:19:47.504Z,3.10
2022-09-09T16:22:20.267Z,4.30
2022-09-09T16:24:52.960Z,2.60
2022-09-09T16:27:25.220Z,3.00
2022-09-09T16:29:57.408Z,4.70
2022-09-09T16:32:29.553Z,3.70
2022-09-09T16:35:04.339Z,4.50
2022-09-09T16:37:38.459Z,5.40
2022-09-09T16:40:12.047Z,2.00
2022-09-09T16:42:44.478Z,5.00
2022-09-09T16:45:16.937Z,3.00
2022-09-09T16:47:49.708Z,3.30
2022-09-09T16:50:22.346Z,2.90
2022-09-09T16:52:55.023Z,2.00
2022-09-09T16:55:27.783Z,3.00
2022-09-09T16:58:00.346Z,5.50
2022-09-09T17:00:33.165Z,3.60
2022-09-09T17:03:06.489Z,3.80
2022-09-09T17:05:48.350Z,3.40
2022-09-09T17:08:20.931Z,2.30
2022-09-09T17:10:55.015Z,5.50
2022-09-09T17:13:27.754Z,5.10
2022-09-09T17:16:03.057Z,3.60
2022-09-09T17:18:35.852Z,3.40
2022-09-09T17:21:09.963Z,2.40
2022-09-09T17:23:42.534Z,4.80
2022-09-09T17:26:23.483Z,5.00
2022-09-09T17:28:59.797Z,2.90
2022-09-09T17:31:42.178Z,5.10
2022-09-09T17:34:19.691Z,6.80
2022-09-09T17:36:54.881Z,1.70
2022-09-09T17:39:27.600Z,3.70
2022-09-09T17:42:00.029Z,1.80
2022-09-09T17:44:35.941Z,2.20
2022-09-09T17:47:10.363Z,3.50
2022-09-09T17:49:43.161Z,2.80
2022-09-09T17:52:18.852Z,3.70
2022-09-09T17:54:52.712Z,5.30
2022-09-09T17:57:25.017Z,3.40
2022-09-09T17:59:59.827Z,4.80
2022-09-09T18:02:41.801Z,3.80
2022-09-09T18:05:16.494Z,2.50
2022-09-09T18:07:51.218Z,4.40
2022-09-09T18:10:28.358Z,7.30
2022-09-09T18:13:02.432Z,2.50
2022-09-09T18:15:49.319Z,5.40
2022-09-09T18:18:24.519Z,2.30
2022-09-09T18:21:07.944Z,2.90
2022-09-09T18:23:47.229Z,2.40
2022-09-09T18:26:25.216Z,3.30
2022-09-09T18:29:03.517Z,4.90
2022-09-09T18:31:37.925Z,3.30
2022-09-09T18:34:15.211Z,4.60
2022-09-09T18:36:57.179Z,2.50
2022-09-09T18:39:34.589Z,3.50
2022-09-09T18:42:09.970Z,2.90
2022-09-09T18:44:46.576Z,4.60
2022-09-09T18:47:24.818Z,2.50
2022-09-09T18:49:59.447Z,2.50
2022-09-09T18:52:38.652Z,2.70
2022-09-09T18:55:17.674Z,2.90
2022-09-09T18:57:53.241Z,3.10
2022-09-09T19:00:37.211Z,2.70
2022-09-09T19:03:11.879Z,4.40
2022-09-09T19:05:48.508Z,3.40
2022-09-09T19:08:26.580Z,3.90
2022-09-09T19:11:03.260Z,3.10
2022-09-09T19:13:44.958Z,3.30
2022-09-09T19:16:21.163Z,3.70
2022-09-09T19:18:55.365Z,4.70
2022-09-09T19:21:31.841Z,3.40
2022-09-09T19:24:08.116Z,3.40
2022-09-09T19:26:46.490Z,4.70
2022-09-09T19:29:22.798Z,3.60
2022-09-09T19:34:53.632Z,4.30
2022-09-09T19:37:27.663Z,4.20
2022-09-09T19:40:12.714Z,4.70
2022-09-09T19:42:48.912Z,4.60
2022-09-09T19:45:28.055Z,5.30
2022-09-09T19:48:03.393Z,4.30
2022-09-09T19:50:38.423Z,4.90
2022-09-09T19:53:12.456Z,6.60
2022-09-09T19:55:49.210Z,4.90
2022-09-09T19:58:26.977Z,5.90
2022-09-09T20:01:06.124Z,6.30
2022-09-09T20:03:40.197Z,6.40
2022-09-09T20:06:14.370Z,5.40
2022-09-09T20:08:49.393Z,5.80
2022-09-09T20:11:23.693Z,6.10
2022-09-09T20:13:56.912Z,7.20
2022-09-09T20:16:32.555Z,8.60
2022-09-09T20:19:08.041Z,8.60
2022-09-09T20:21:47.262Z,7.90
2022-09-09T20:24:26.698Z,7.40
2022-09-09T20:27:02.136Z,7.60
2022-09-09T20:29:34.380Z,8.60
2022-09-09T20:32:07.158Z,7.90
2022-09-09T20:34:39.579Z,9.00
2022-09-09T20:37:12.074Z,8.60
2022-09-09T20:39:46.488Z,11.20
2022-09-09T20:42:20.447Z,9.30
2022-09-09T20:44:52.893Z,8.70
2022-09-09T20:47:25.144Z,8.70
2022-09-09T20:49:58.277Z,8.50
2022-09-09T20:52:30.395Z,8.00
2022-09-09T20:55:02.654Z,12.00
2022-09-09T20:57:35.223Z,10.30
2022-09-09T21:00:10.179Z,13.10
2022-09-09T21:02:42.371Z,11.10
2022-09-09T21:05:14.850Z,9.80
2022-09-09T21:07:47.258Z,12.30
2022-09-09T21:10:23.227Z,10.10
2022-09-09T21:12:55.778Z,8.90
2022-09-09T21:15:41.314Z,14.00
2022-09-09T21:18:13.885Z,15.10
2022-09-09T21:20:47.236Z,10.90
2022-09-09T21:23:20.619Z,13.80
2022-09-09T21:25:55.082Z,15.00
2022-09-09T21:28:27.737Z,10.70
2022-09-09T21:30:59.819Z,11.90
2022-09-09T21:33:32.804Z,13.90
2022-09-09T21:36:09.488Z,11.30
2022-09-09T21:38:42.787Z,11.80
2022-09-09T21:41:17.557Z,12.00
2022-09-09T21:43:55.151Z,11.40
2022-09-09T21:46:28.294Z,11.80
2022-09-09T21:49:03.466Z,11.40
2022-09-09T21:51:35.772Z,10.50
2022-09-09T21:54:08.150Z,12.70
2022-09-09T21:56:40.727Z,13.30
2022-09-09T21:59:12.908Z,16.10
2022-09-09T22:01:46.260Z,13.00
2022-09-09T22:04:21.535Z,13.30
2022-09-09T22:06:53.813Z,14.40
2022-09-09T22:09:26.294Z,11.80
2022-09-09T22:12:00.454Z,16.30
2022-09-09T22:14:33.228Z,14.50
2022-09-09T22:17:07.222Z,14.80
2022-09-09T22:19:40.817Z,14.50
2022-09-09T22:22:13.339Z,14.20
2022-09-09T22:24:45.683Z,17.90
2022-09-09T22:27:17.984Z,13.40
2022-09-09T22:29:50.152Z,13.60
2022-09-09T22:32:22.629Z,18.60
2022-09-09T22:34:54.762Z,16.80
2022-09-09T22:37:26.994Z,16.50
2022-09-09T22:39:59.210Z,14.10
2022-09-09T22:42:34.961Z,14.40
2022-09-09T22:45:08.469Z,17.20
2022-09-09T22:47:42.495Z,18.20
2022-09-09T22:50:14.669Z,13.70
2022-09-09T22:52:47.488Z,17.50
2022-09-09T22:55:20.081Z,14.60
2022-09-09T22:57:52.316Z,16.70
2022-09-09T23:00:24.683Z,15.30
2022-09-09T23:02:57.403Z,15.30
2022-09-09T23:05:30.692Z,17.40
2022-09-09T23:08:06.177Z,14.20
2022-09-09T23:10:43.283Z,13.50
2022-09-09T23:13:15.699Z,14.30
2022-09-09T23:15:48.567Z,15.70
2022-09-09T23:18:22.347Z,17.10
2022-09-09T23:21:01.994Z,16.40
2022-09-09T23:23:34.359Z,17.70
2022-09-09T23:26:07.333Z,16.60
2022-09-09T23:28:43.775Z,13.60
2022-09-09T23:31:18.820Z,17.50
2022-09-09T23:33:51.287Z,15.60
2022-09-09T23:36:26.334Z,15.90
2022-09-09T23:38:59.025Z,17.40
2022-09-09T23:41:32.256Z,16.40
2022-09-09T23:44:05.504Z,15.10
2022-09-09T23:46:38.225Z,15.30
2022-09-09T23:49:10.454Z,16.10
2022-09-09T23:51:42.664Z,14.80
2022-09-09T23:54:15.077Z,13.60
2022-09-09T23:56:47.669Z,14.90
2022-09-09T23:59:20.690Z,12.90
